Time;durP1;ratioP1;P1;durP2;ratioP2;P2;SDS_P1;SDS_P2;PMS_P1;PMS_P2;Temp;Humidity;BMP_temperature;BMP_pressure;BME280_temperature;BME280_humidity;BME280_pressure;Samples;Min_cycle;Max_cycle;Signal;HPM_P1;HPM_P2
2021/05/30 00:01:11;;;;;;;11.55;9.45;;;;;;;10.58;69.49;100857.26;2061533;86;34039;-59
2021/05/30 00:04:13;;;;;;;11.43;8.28;;;;;;;10.56;69.59;100859.61;2054957;86;29152;-59
2021/05/30 00:07:18;;;;;;;14.03;8.83;;;;;;;10.53;69.61;100853.03;2069091;85;27656;-59
2021/05/30 00:10:20;;;;;;;12.93;9.03;;;;;;;10.51;69.67;100856.23;2071800;85;28799;-59
2021/05/30 00:13:21;;;;;;;9.48;7.90;;;;;;;10.46;69.73;100859.95;2055171;86;32141;-60
2021/05/30 00:16:23;;;;;;;12.53;9.20;;;;;;;10.42;69.87;100867.73;2069867;86;32788;-60
2021/05/30 00:19:25;;;;;;;13.70;8.50;;;;;;;10.40;69.92;100865.58;2071550;85;29360;-59
2021/05/30 00:22:27;;;;;;;12.58;9.45;;;;;;;10.37;70.05;100875.48;2055011;86;27600;-60
2021/05/30 00:25:28;;;;;;;13.40;10.15;;;;;;;10.32;70.15;100868.53;2069833;86;29452;-60
2021/05/30 00:28:30;;;;;;;11.30;7.55;;;;;;;10.31;70.03;100875.27;2069435;86;30748;-59
2021/05/30 00:31:32;;;;;;;14.30;9.03;;;;;;;10.30;70.13;100878.88;2071556;85;32908;-59
2021/05/30 00:34:36;;;;;;;9.28;6.78;;;;;;;10.29;70.24;100872.67;2055178;86;30436;-59
2021/05/30 00:37:38;;;;;;;14.50;8.88;;;;;;;10.29;70.41;100870.44;2069997;85;27601;-59
2021/05/30 00:40:43;;;;;;;13.83;9.43;;;;;;;10.28;70.34;100877.61;2071534;85;29278;-59
2021/05/30 00:43:51;;;;;;;11.97;8.83;;;;;;;10.29;70.47;100887.84;2055495;85;31023;-59
2021/05/30 00:46:54;;;;;;;11.93;7.65;;;;;;;10.27;70.57;100890.59;2077317;85;33820;-60
2021/05/30 00:49:55;;;;;;;9.05;7.45;;;;;;;10.28;70.60;100893.69;2077211;85;30069;-59
2021/05/30 00:52:58;;;;;;;9.78;6.30;;;;;;;10.26;70.71;100886.17;2077416;85;27669;-59
2021/05/30 00:56:04;;;;;;;9.30;6.33;;;;;;;10.26;70.72;100887.98;2077266;85;28676;-59
2021/05/30 00:59:06;;;;;;;8.23;6.28;;;;;;;10.25;70.87;100896.95;2099667;84;30996;-59
2021/05/30 01:02:09;;;;;;;11.40;6.58;;;;;;;10.23;70.82;100902.34;2090747;84;33728;-59
2021/05/30 01:05:12;;;;;;;8.78;7.35;;;;;;;10.22;70.96;100898.41;2112184;84;30404;-59
2021/05/30 01:08:15;;;;;;;9.45;6.80;;;;;;;10.22;70.97;100898.41;2112290;84;27573;-59
2021/05/30 01:11:18;;;;;;;10.85;8.73;;;;;;;10.23;71.00;100897.47;2112326;84;29347;-59
2021/05/30 01:14:20;;;;;;;14.78;8.13;;;;;;;10.22;71.01;100895.73;2112399;84;30783;-59
2021/05/30 01:17:22;;;;;;;8.05;6.90;;;;;;;10.21;70.97;100894.84;2112410;84;33288;-59
2021/05/30 01:20:26;;;;;;;9.53;6.65;;;;;;;10.18;71.03;100891.83;2112350;84;30603;-59
2021/05/30 01:23:27;;;;;;;9.85;6.78;;;;;;;10.17;71.03;100892.75;2112419;84;27564;-59
2021/05/30 01:26:30;;;;;;;11.88;6.87;;;;;;;10.15;70.85;100895.09;2112545;84;29009;-59
2021/05/30 01:29:31;;;;;;;7.67;5.65;;;;;;;10.15;70.86;100897.77;2112425;84;32127;-58
2021/05/30 01:32:34;;;;;;;8.20;5.97;;;;;;;10.14;71.02;100902.23;2112312;84;34095;-59
2021/05/30 01:35:36;;;;;;;9.25;6.92;;;;;;;10.14;70.92;100899.55;2112412;84;30252;-59
2021/05/30 01:38:38;;;;;;;7.47;6.03;;;;;;;10.15;71.11;100903.12;2112731;84;27633;-58
2021/05/30 01:41:39;;;;;;;11.48;7.17;;;;;;;10.14;71.02;100906.73;2112713;84;29222;-59
2021/05/30 01:44:41;;;;;;;10.40;7.03;;;;;;;10.11;71.03;100897.47;2115572;83;31544;-59
2021/05/30 01:47:44;;;;;;;9.73;7.12;;;;;;;10.09;71.19;100905.58;2120556;83;33216;-59
2021/05/30 01:50:49;;;;;;;9.48;6.92;;;;;;;10.10;71.13;100903.75;2120324;83;29334;-58
2021/05/30 01:54:02;;;;;;;7.95;6.67;;;;;;;10.08;71.32;100906.50;2120738;83;33255;-58
2021/05/30 01:56:59;;;;;;;13.22;7.33;;;;;;;10.07;71.22;100906.55;2118872;82;29020;-58
2021/05/30 02:00:00;;;;;;;9.93;5.92;;;;;;;10.06;71.21;100908.81;2119175;83;31705;-57
2021/05/30 02:03:02;;;;;;;10.32;6.70;;;;;;;10.04;71.32;100902.19;2120301;83;33380;-57
2021/05/30 02:06:05;;;;;;;13.15;6.70;;;;;;;9.99;71.09;100895.68;2120598;83;29547;-58
2021/05/30 02:09:06;;;;;;;11.60;6.55;;;;;;;9.99;71.07;100894.78;2120419;83;28144;-58
2021/05/30 02:12:09;;;;;;;8.85;7.05;;;;;;;9.97;71.03;100891.30;2120507;83;28623;-57
2021/05/30 02:15:12;;;;;;;11.50;7.55;;;;;;;9.97;71.12;100894.86;2120350;83;30982;-58
2021/05/30 02:18:14;;;;;;;9.45;7.20;;;;;;;9.96;71.03;100897.58;2120316;83;33004;-58
2021/05/30 02:21:16;;;;;;;10.63;7.15;;;;;;;9.95;71.09;100899.39;2120492;83;29751;-58
2021/05/30 02:24:21;;;;;;;12.68;6.60;;;;;;;9.96;71.12;100910.95;2120577;83;27702;-58
2021/05/30 02:27:23;;;;;;;8.78;6.15;;;;;;;9.95;71.17;100902.52;2120568;83;28582;-60
2021/05/30 02:30:26;;;;;;;8.45;5.92;;;;;;;9.94;71.02;100899.43;2120440;83;32279;-58
2021/05/30 02:33:28;;;;;;;10.30;6.40;;;;;;;9.93;71.15;100909.28;2120339;83;34051;-57
2021/05/30 02:36:30;;;;;;;7.35;6.25;;;;;;;9.92;71.05;100905.33;2120443;83;29726;-57
2021/05/30 02:39:33;;;;;;;6.78;6.03;;;;;;;9.94;71.00;100908.80;2120549;83;27541;-57
2021/05/30 02:42:35;;;;;;;9.60;6.75;;;;;;;9.92;70.96;100908.87;2120558;83;29008;-57
2021/05/30 02:45:37;;;;;;;10.78;6.78;;;;;;;9.88;70.83;100909.45;2120181;83;31608;-58
2021/05/30 02:48:39;;;;;;;9.83;6.42;;;;;;;9.84;70.72;100911.83;2120246;83;33910;-57
2021/05/30 02:51:41;;;;;;;12.63;8.53;;;;;;;9.83;70.60;100911.90;2120408;83;30575;-58
2021/05/30 02:54:43;;;;;;;17.45;12.75;;;;;;;9.79;70.58;100913.79;2120671;83;27589;-58
2021/05/30 02:57:45;;;;;;;13.15;9.73;;;;;;;9.76;70.51;100915.27;2120327;83;29433;-58
2021/05/30 03:00:47;;;;;;;8.40;5.97;;;;;;;9.77;70.59;100918.80;2120358;83;31759;-58
2021/05/30 03:03:49;;;;;;;7.70;5.05;;;;;;;9.76;70.59;100920.62;2120355;83;33019;-58
2021/05/30 03:06:52;;;;;;;9.78;6.12;;;;;;;9.78;70.60;100924.08;2120303;83;29331;-58
2021/05/30 03:09:54;;;;;;;9.25;5.90;;;;;;;9.82;70.64;100926.20;2120388;83;27604;-58
2021/05/30 03:12:56;;;;;;;6.20;5.60;;;;;;;9.84;70.67;100937.73;2120439;83;30736;-58
2021/05/30 03:15:58;;;;;;;7.55;5.70;;;;;;;9.86;70.70;100931.38;2120375;83;31389;-58
2021/05/30 03:19:00;;;;;;;8.23;6.20;;;;;;;9.88;70.72;100933.55;2120243;83;32983;-58
2021/05/30 03:22:02;;;;;;;9.03;6.03;;;;;;;9.91;70.61;100925.86;2120337;83;29678;-58
2021/05/30 03:25:05;;;;;;;7.25;5.33;;;;;;;9.94;70.56;100931.55;2120360;83;27636;-58
2021/05/30 03:28:07;;;;;;;11.78;6.42;;;;;;;9.97;70.70;100930.10;2120368;83;28635;-58
2021/05/30 03:31:09;;;;;;;6.55;5.50;;;;;;;9.99;70.32;100938.50;2120271;83;32370;-58
2021/05/30 03:34:11;;;;;;;10.05;5.37;;;;;;;10.01;70.31;100940.62;2120352;83;33696;-58
2021/05/30 03:37:12;;;;;;;8.30;5.92;;;;;;;10.03;70.19;100948.14;2120361;83;31486;-58
2021/05/30 03:40:28;;;;;;;7.05;6.30;;;;;;;10.08;70.11;100951.13;2120427;83;27939;-58
2021/05/30 03:43:22;;;;;;;8.15;5.97;;;;;;;10.07;69.85;100947.59;2118866;83;29729;-59
2021/05/30 03:46:23;;;;;;;8.70;5.30;;;;;;;10.07;69.88;100942.68;2120332;83;31189;-58
2021/05/30 03:49:25;;;;;;;10.10;5.62;;;;;;;10.09;69.86;100950.20;2120390;83;33224;-58
2021/05/30 03:52:27;;;;;;;8.78;6.37;;;;;;;10.10;69.92;100947.93;2120338;83;29763;-58
2021/05/30 03:55:28;;;;;;;7.30;5.65;;;;;;;10.12;69.80;100956.78;2120351;83;27569;-58
2021/05/30 03:58:31;;;;;;;10.43;5.67;;;;;;;10.17;69.88;100958.35;2120361;83;28906;-58
2021/05/30 04:01:35;;;;;;;8.00;6.22;;;;;;;10.24;69.82;100954.11;2120485;83;31158;-58
2021/05/30 04:04:36;;;;;;;8.25;6.42;;;;;;;10.29;69.74;100954.34;2120247;83;32948;-58
2021/05/30 04:07:39;;;;;;;8.88;6.72;;;;;;;10.37;69.78;100959.86;2120353;83;30599;-58
2021/05/30 04:10:44;;;;;;;9.80;7.60;;;;;;;10.43;69.71;100965.88;2120549;83;27576;-58
2021/05/30 04:13:45;;;;;;;8.85;6.03;;;;;;;10.50;69.70;100961.19;2120079;83;29801;-58
2021/05/30 04:16:47;;;;;;;7.72;6.08;;;;;;;10.59;69.67;100953.27;2120363;83;31386;-58
2021/05/30 04:19:48;;;;;;;8.80;6.37;;;;;;;10.69;69.65;100962.67;2120331;83;34100;-58
2021/05/30 04:22:50;;;;;;;8.70;6.40;;;;;;;10.77;69.40;100969.06;2120446;83;29729;-57
2021/05/30 04:25:52;;;;;;;9.40;6.78;;;;;;;10.82;69.18;100968.87;2120423;83;27629;-58
2021/05/30 04:28:53;;;;;;;10.40;7.20;;;;;;;10.88;69.16;100969.98;2120501;83;28645;-58
2021/05/30 04:31:55;;;;;;;11.93;6.83;;;;;;;10.94;68.92;100979.09;2120474;83;31995;-58
2021/05/30 04:34:57;;;;;;;9.40;7.35;;;;;;;11.07;68.98;100975.46;2120314;83;33367;-58
2021/05/30 04:37:59;;;;;;;7.62;6.67;;;;;;;11.24;68.71;100977.47;2120421;83;29245;-58
2021/05/30 04:41:01;;;;;;;11.28;6.97;;;;;;;11.46;68.35;100981.45;2120381;83;28238;-58
2021/05/30 04:44:03;;;;;;;8.40;6.40;;;;;;;11.95;68.02;100978.92;2120339;83;29213;-58
2021/05/30 04:47:05;;;;;;;8.18;7.37;;;;;;;12.25;67.21;100981.19;2108853;83;32103;-58
2021/05/30 04:50:09;;;;;;;8.95;7.28;;;;;;;12.49;66.66;100980.52;2094994;84;34048;-58
2021/05/30 04:53:10;;;;;;;12.45;10.15;;;;;;;12.78;65.88;100982.30;2106430;84;30060;-58
2021/05/30 04:56:20;;;;;;;9.15;8.03;;;;;;;13.10;65.95;100977.66;2096236;84;27735;-59
2021/05/30 04:59:21;;;;;;;6.30;5.70;;;;;;;13.65;64.94;100987.48;2106211;84;28968;-58
2021/05/30 05:02:23;;;;;;;7.00;5.65;;;;;;;13.76;63.06;100985.58;2096325;84;31159;-58
2021/05/30 05:05:27;;;;;;;6.70;5.92;;;;;;;13.70;63.60;100989.47;2106366;84;32942;-58
2021/05/30 05:08:29;;;;;;;6.60;5.30;;;;;;;13.98;63.43;100990.22;2096203;84;29853;-58
2021/05/30 05:11:31;;;;;;;6.47;5.87;;;;;;;13.95;63.36;100993.10;2106722;84;27633;-59
2021/05/30 05:14:33;;;;;;;6.33;5.37;;;;;;;14.01;63.09;100994.59;2096369;84;28960;-58
2021/05/30 05:17:34;;;;;;;5.95;5.17;;;;;;;13.98;62.36;100987.52;2106621;84;30781;-58
2021/05/30 05:20:36;;;;;;;6.35;5.33;;;;;;;13.93;61.76;100990.07;2096426;84;33003;-58
2021/05/30 05:23:38;;;;;;;6.75;5.42;;;;;;;13.79;61.92;100996.20;2106646;84;29808;-58
2021/05/30 05:26:39;;;;;;;6.72;5.45;;;;;;;13.77;62.29;101000.30;2096393;84;27633;-58
2021/05/30 05:29:41;;;;;;;6.87;4.85;;;;;;;13.93;62.34;100988.72;2106619;84;29031;-58
2021/05/30 05:32:43;;;;;;;5.03;4.53;;;;;;;14.86;62.11;101004.83;2096305;84;32111;-58
2021/05/30 05:35:45;;;;;;;5.60;5.05;;;;;;;15.15;59.36;101005.48;2106319;84;34073;-58
2021/05/30 05:38:46;;;;;;;8.48;5.05;;;;;;;14.94;59.89;101007.59;2095925;84;29549;-59
2021/05/30 05:41:51;;;;;;;5.28;4.33;;;;;;;14.77;59.57;101004.47;2106466;84;27539;-58
2021/05/30 05:44:52;;;;;;;4.47;4.08;;;;;;;14.53;59.20;101008.41;2105936;84;28794;-59
2021/05/30 05:47:54;;;;;;;5.60;4.05;;;;;;;14.24;59.43;101008.19;2118678;83;32114;-58
2021/05/30 05:50:56;;;;;;;5.40;4.22;;;;;;;13.97;58.72;101014.09;2120264;83;34272;-58
2021/05/30 05:53:58;;;;;;;5.67;3.98;;;;;;;13.79;59.48;101015.05;2120341;83;30404;-58
2021/05/30 05:57:00;;;;;;;13.85;11.03;;;;;;;13.65;59.43;101009.02;2120412;83;27643;-58
2021/05/30 06:00:11;;;;;;;6.03;4.62;;;;;;;13.54;58.84;101015.44;2120223;83;29184;-58
2021/05/30 06:03:13;;;;;;;5.67;4.50;;;;;;;13.43;59.51;101017.31;2120180;83;31001;-58
2021/05/30 06:06:17;;;;;;;6.70;4.12;;;;;;;13.42;59.83;101027.20;2120318;82;33732;-58
2021/05/30 06:09:19;;;;;;;4.92;4.53;;;;;;;13.47;59.82;101022.46;2120360;83;29400;-59
2021/05/30 06:12:20;;;;;;;5.00;4.53;;;;;;;13.60;59.86;101022.72;2120554;83;27549;-58
2021/05/30 06:15:24;;;;;;;4.70;3.92;;;;;;;13.71;59.92;101023.53;2120220;83;29778;-58
2021/05/30 06:18:27;;;;;;;5.42;4.37;;;;;;;13.78;59.86;101019.55;2120271;83;31376;-58
2021/05/30 06:21:30;;;;;;;4.65;4.17;;;;;;;13.77;59.85;101022.34;2120482;83;33327;-58
2021/05/30 06:24:33;;;;;;;6.78;4.12;;;;;;;13.79;59.62;101024.48;2120526;83;29509;-58
2021/05/30 06:27:35;;;;;;;3.87;3.55;;;;;;;13.67;58.87;101031.36;2120396;83;27603;-58
2021/05/30 06:30:39;;;;;;;5.28;4.70;;;;;;;13.60;59.29;101028.11;2120324;83;29143;-59
2021/05/30 06:33:41;;;;;;;8.85;6.20;;;;;;;13.52;59.44;101032.53;2120468;83;31000;-58
2021/05/30 06:36:48;;;;;;;7.87;5.70;;;;;;;13.48;59.09;101034.13;2120754;83;33924;-58
2021/05/30 06:39:49;;;;;;;5.85;4.80;;;;;;;13.41;59.61;101046.13;2120389;83;29387;-58
2021/05/30 06:42:51;;;;;;;5.67;5.08;;;;;;;13.33;59.57;101041.09;2120496;83;27610;-58
2021/05/30 06:45:53;;;;;;;8.40;5.67;;;;;;;13.24;59.77;101046.94;2120268;83;29945;-58
2021/05/30 06:48:55;;;;;;;6.10;5.45;;;;;;;13.30;60.06;101047.96;2120531;83;32311;-58
2021/05/30 06:51:57;;;;;;;6.53;5.33;;;;;;;13.49;60.14;101050.64;2120551;83;32946;-58
2021/05/30 06:55:00;;;;;;;11.05;7.85;;;;;;;13.77;60.02;101047.43;2120545;83;30064;-58
2021/05/30 06:58:02;;;;;;;8.65;7.75;;;;;;;14.15;59.84;101043.69;2081800;85;27641;-58
2021/05/30 07:01:04;;;;;;;5.70;5.15;;;;;;;14.41;59.19;101043.65;2075338;85;28627;-58
2021/05/30 07:04:06;;;;;;;5.90;4.70;;;;;;;14.66;59.22;101046.38;2075173;85;32145;-58
2021/05/30 07:07:07;;;;;;;5.47;4.97;;;;;;;14.87;58.26;101051.58;2075220;85;34112;-58
2021/05/30 07:10:12;;;;;;;5.42;4.92;;;;;;;14.94;58.27;101052.10;2075100;85;30419;-59
2021/05/30 07:13:13;;;;;;;13.33;5.17;;;;;;;14.90;57.82;101059.48;2075541;85;27599;-58
2021/05/30 07:16:15;;;;;;;6.28;5.10;;;;;;;14.78;58.03;101061.52;2075243;85;29805;-58
2021/05/30 07:19:17;;;;;;;5.17;4.58;;;;;;;14.62;58.11;101074.95;2075071;85;31851;-58
2021/05/30 07:22:19;;;;;;;5.75;5.30;;;;;;;14.49;58.25;101072.89;2079062;85;33353;-58
2021/05/30 07:25:21;;;;;;;5.12;4.50;;;;;;;14.35;58.05;101080.39;2120410;83;29525;-58
2021/05/30 07:28:23;;;;;;;6.35;4.62;;;;;;;14.13;58.16;101080.16;2120711;83;28167;-59
2021/05/30 07:31:26;;;;;;;5.67;5.08;;;;;;;13.93;58.01;101085.70;2120514;83;28788;-59
2021/05/30 07:34:28;;;;;;;5.28;4.53;;;;;;;13.68;58.39;101088.30;2119194;83;32072;-59
2021/05/30 07:37:30;;;;;;;6.47;5.12;;;;;;;13.45;58.53;101087.61;2095113;84;33306;-59
2021/05/30 07:40:36;;;;;;;5.80;5.20;;;;;;;13.30;59.18;101089.67;2075991;84;29714;-59
2021/05/30 07:43:38;;;;;;;7.47;5.53;;;;;;;13.25;59.57;101094.39;2078721;84;27652;-58
2021/05/30 07:46:40;;;;;;;7.40;5.62;;;;;;;13.15;59.71;101098.89;2117282;83;29291;-58
2021/05/30 07:49:42;;;;;;;6.00;5.40;;;;;;;13.08;59.93;101108.17;2110628;84;32580;-60
2021/05/30 07:52:44;;;;;;;8.40;6.37;;;;;;;13.01;60.33;101111.63;2112550;84;34263;-59
2021/05/30 07:55:45;;;;;;;8.60;6.30;;;;;;;12.90;60.48;101111.27;2110825;84;29369;-59
2021/05/30 07:58:47;;;;;;;10.90;7.75;;;;;;;12.85;60.69;101107.45;2112445;84;27533;-59
2021/05/30 08:01:49;;;;;;;8.75;6.42;;;;;;;12.83;60.86;101113.38;2110600;84;29562;-59
2021/05/30 08:04:53;;;;;;;6.30;5.45;;;;;;;12.95;61.31;101115.08;2112572;84;30899;-59
2021/05/30 08:07:55;;;;;;;6.15;5.20;;;;;;;13.12;61.71;101111.13;2102799;84;33050;-59
2021/05/30 08:10:57;;;;;;;6.45;5.47;;;;;;;13.34;61.52;101107.42;2102061;84;30564;-58
2021/05/30 08:13:59;;;;;;;9.68;5.00;;;;;;;13.48;61.26;101106.80;2102451;84;27574;-59
2021/05/30 08:17:01;;;;;;;5.67;4.72;;;;;;;13.56;61.19;101111.31;2102323;84;28986;-58
2021/05/30 08:20:06;;;;;;;5.40;4.83;;;;;;;13.58;60.97;101118.84;2102322;84;30994;-58
2021/05/30 08:23:08;;;;;;;5.83;5.25;;;;;;;13.57;60.74;101124.32;2102278;84;33035;-59
2021/05/30 08:26:11;;;;;;;8.40;6.10;;;;;;;13.48;60.80;101129.68;2103483;84;31468;-59
2021/05/30 08:29:13;;;;;;;9.05;5.55;;;;;;;13.47;60.91;101131.97;2107049;84;27569;-59
2021/05/30 08:32:15;;;;;;;5.78;5.00;;;;;;;13.50;60.93;101129.09;2106384;84;29410;-58
2021/05/30 08:35:19;;;;;;;7.83;6.15;;;;;;;13.51;60.88;101137.12;2107582;84;31208;-60
2021/05/30 08:38:22;;;;;;;8.35;6.58;;;;;;;13.52;60.75;101137.52;2108318;84;35061;-59
2021/05/30 08:41:24;;;;;;;6.75;6.10;;;;;;;13.48;60.65;101133.23;2112120;84;29504;-59
2021/05/30 08:44:29;;;;;;;9.43;7.67;;;;;;;13.50;60.46;101143.91;2110060;84;28245;-59
2021/05/30 08:47:30;;;;;;;7.30;6.10;;;;;;;13.55;60.68;101143.22;2112474;83;29159;-58
2021/05/30 08:50:32;;;;;;;6.35;5.75;;;;;;;13.63;60.65;101136.11;2110709;84;31033;-58
2021/05/30 08:53:38;;;;;;;6.65;6.05;;;;;;;13.75;60.57;101134.16;2112452;84;33766;-58
2021/05/30 08:56:41;;;;;;;;;;;;;;;13.96;60.68;101134.92;2093195;84;30301;-59
2021/05/30 08:59:56;;;;;;;7.30;5.97;;;;;;;14.21;60.13;101136.35;2075631;85;27554;-58
2021/05/30 09:03:15;;;;;;;7.07;5.47;;;;;;;14.50;60.21;101129.91;2110853;84;28774;-58
2021/05/30 09:06:18;;;;;;;7.78;5.25;;;;;;;14.95;59.99;101130.25;2112334;84;31389;-59
2021/05/30 09:09:20;;;;;;;5.53;5.03;;;;;;;15.28;59.10;101130.69;2110544;84;32980;-59
2021/05/30 09:12:34;;;;;;;5.55;4.90;;;;;;;15.40;58.08;101139.04;2112129;84;29866;-59
2021/05/30 09:15:51;;;;;;;5.30;4.80;;;;;;;15.44;58.60;101137.91;2109682;84;27503;-58
2021/05/30 09:18:41;;;;;;;7.20;5.42;;;;;;;15.56;58.00;101130.95;2110108;84;29896;-58
2021/05/30 09:21:42;;;;;;;7.28;4.60;;;;;;;15.68;57.67;101144.23;2110516;84;31604;-58
2021/05/30 09:24:54;;;;;;;5.87;5.05;;;;;;;15.93;57.88;101135.11;2112176;84;33776;-59
2021/05/30 09:28:01;;;;;;;5.22;4.12;;;;;;;16.21;57.33;101133.95;2110433;84;30645;-59
2021/05/30 09:31:04;;;;;;;4.87;4.37;;;;;;;16.35;56.70;101137.19;2112331;84;27577;-59
2021/05/30 09:34:31;;;;;;;4.40;3.90;;;;;;;16.63;56.82;101135.48;2110533;84;28650;-58
2021/05/30 09:37:33;;;;;;;4.35;3.95;;;;;;;17.19;56.64;101130.70;2112153;84;31752;-59
2021/05/30 09:41:06;;;;;;;7.17;5.53;;;;;;;17.92;54.21;101127.69;2110362;84;33456;-59
2021/05/30 09:44:08;;;;;;;4.90;4.50;;;;;;;17.92;54.21;101127.69;2112380;84;29770;-59
2021/05/30 09:47:32;;;;;;;6.03;3.52;;;;;;;18.17;53.52;101126.53;2112087;84;27585;-59
2021/05/30 09:50:34;;;;;;;6.40;5.37;;;;;;;18.44;53.50;101131.02;2120082;83;29260;-59
2021/05/30 09:53:45;;;;;;;4.42;4.00;;;;;;;18.54;52.67;101125.31;2120198;83;31561;-59
2021/05/30 09:56:54;;;;;;;6.35;3.80;;;;;;;18.43;52.81;101108.45;2098442;83;28305;-59
2021/05/30 09:59:57;;;;;;;4.03;3.70;;;;;;;18.43;52.81;101108.45;2095782;83;27637;-59
2021/05/30 10:03:00;;;;;;;5.70;3.77;;;;;;;18.50;51.40;101132.80;2120459;83;27787;-59
2021/05/30 10:06:02;;;;;;;4.28;3.67;;;;;;;18.38;51.80;101133.67;2095927;83;29172;-59
2021/05/30 10:09:04;;;;;;;3.80;3.50;;;;;;;18.36;52.14;101132.91;2120232;83;31533;-59
2021/05/30 10:12:07;;;;;;;3.98;3.65;;;;;;;18.43;51.49;101136.94;2116835;83;34576;-59
2021/05/30 10:15:11;;;;;;;6.05;3.85;;;;;;;18.43;51.65;101129.27;2094300;85;30185;-59
2021/05/30 10:18:21;;;;;;;4.10;3.70;;;;;;;18.51;51.83;101124.20;2094263;85;27629;-59
2021/05/30 10:21:23;;;;;;;4.37;3.95;;;;;;;18.51;51.34;101119.62;2094089;84;29759;-59
2021/05/30 10:24:26;;;;;;;5.22;4.67;;;;;;;18.52;51.55;101121.86;2072611;85;32309;-59
2021/05/30 10:27:29;;;;;;;4.70;4.20;;;;;;;18.58;52.05;101120.05;2094056;84;33097;-59
2021/05/30 10:30:32;;;;;;;3.65;3.35;;;;;;;18.65;51.60;101116.41;2097094;84;30111;-58
2021/05/30 10:33:35;;;;;;;3.62;3.25;;;;;;;18.78;51.48;101118.63;2120522;83;28103;-58
2021/05/30 10:36:42;;;;;;;5.80;3.52;;;;;;;18.87;49.86;101127.11;2120225;83;28494;-59
2021/05/30 10:39:47;;;;;;;3.83;3.52;;;;;;;18.78;49.50;101115.06;2120338;83;32299;-58
2021/05/30 10:43:13;;;;;;;3.72;3.35;;;;;;;18.98;50.07;101109.11;2120301;83;34085;-58
2021/05/30 10:46:23;;;;;;;5.55;3.87;;;;;;;19.15;49.28;101117.88;2119409;83;29366;-58
2021/05/30 10:49:20;;;;;;;4.58;3.30;;;;;;;19.22;49.79;101115.08;2118188;83;27782;-58
2021/05/30 10:52:37;;;;;;;3.35;3.05;;;;;;;19.40;48.98;101108.80;2120363;83;29105;-59
2021/05/30 10:55:39;;;;;;;3.20;2.90;;;;;;;19.58;48.82;101116.56;2120281;83;30997;-59
2021/05/30 10:58:44;;;;;;;3.60;3.25;;;;;;;19.66;48.19;101118.20;2120271;83;35075;-59
2021/05/30 11:01:49;;;;;;;3.60;3.30;;;;;;;19.69;47.99;101115.76;2119850;83;30336;-59
2021/05/30 11:04:51;;;;;;;3.80;3.40;;;;;;;19.73;48.09;101116.77;2120383;83;27681;-61
2021/05/30 11:07:53;;;;;;;3.55;2.95;;;;;;;19.76;47.85;101112.08;2120266;83;29370;-58
2021/05/30 11:11:18;;;;;;;5.30;2.92;;;;;;;19.74;47.51;101112.18;2120422;83;31238;-59
2021/05/30 11:14:20;;;;;;;3.37;3.08;;;;;;;19.70;47.50;101110.67;2120380;83;34070;-59
2021/05/30 11:17:53;;;;;;;5.62;3.58;;;;;;;19.70;46.81;101119.70;2120116;83;53648;-58
2021/05/30 11:20:58;;;;;;;3.87;3.35;;;;;;;19.68;46.69;101119.45;2120385;83;28166;-59
2021/05/30 11:24:03;;;;;;;3.50;3.20;;;;;;;19.66;47.51;101116.84;2120285;83;28641;-59
2021/05/30 11:27:07;;;;;;;3.60;3.30;;;;;;;19.72;47.25;101119.58;2120475;83;31425;-59
2021/05/30 11:30:10;;;;;;;4.87;3.00;;;;;;;19.76;47.25;101111.58;2120377;83;32796;-58
2021/05/30 11:33:17;;;;;;;5.47;3.55;;;;;;;19.92;47.19;101125.39;2120317;83;28855;-59
2021/05/30 11:36:27;;;;;;;3.35;3.00;;;;;;;20.08;47.62;101126.47;2117182;83;27640;-59
2021/05/30 11:39:34;;;;;;;5.33;3.30;;;;;;;20.27;47.16;101121.81;2111256;83;29782;-58
2021/05/30 11:42:36;;;;;;;5.85;4.78;;;;;;;20.40;46.69;101123.10;2119659;83;30513;-59
2021/05/30 11:45:41;;;;;;;3.52;2.95;;;;;;;20.55;46.79;101116.45;2120438;83;33476;-58
2021/05/30 11:48:42;;;;;;;;;;;;;;;20.58;46.00;101121.66;2121728;83;29328;-59
2021/05/30 11:52:01;;;;;;;4.37;3.65;;;;;;;20.50;45.51;101115.94;2080997;85;27502;-58
2021/05/30 11:55:06;;;;;;;4.55;4.15;;;;;;;20.34;45.03;101122.58;2117878;84;29017;-58
2021/05/30 11:58:08;;;;;;;4.75;3.62;;;;;;;20.28;46.17;101114.88;2094041;84;32187;-58
2021/05/30 12:01:10;;;;;;;3.08;2.77;;;;;;;20.22;46.13;101122.19;2117889;83;33331;-59
2021/05/30 12:04:33;;;;;;;3.47;2.83;;;;;;;20.21;45.86;101123.64;2117832;83;29460;-59
2021/05/30 12:07:35;;;;;;;3.00;2.80;;;;;;;20.22;46.05;101121.30;2116319;83;27712;-59
2021/05/30 12:10:57;;;;;;;3.87;3.47;;;;;;;20.17;45.48;101117.11;2094313;84;29017;-59
2021/05/30 12:14:04;;;;;;;3.83;3.42;;;;;;;20.11;45.30;101113.96;2117263;83;31533;-59
2021/05/30 12:17:12;;;;;;;2.85;2.65;;;;;;;19.89;45.29;101122.42;2116328;83;33784;-58
2021/05/30 12:20:21;;;;;;;4.20;2.65;;;;;;;19.81;44.92;101110.74;2117784;84;29732;-59
2021/05/30 12:23:26;;;;;;;2.77;2.58;;;;;;;19.86;45.71;101108.52;2116413;84;27640;-60
2021/05/30 12:26:28;;;;;;;3.60;2.67;;;;;;;20.02;45.21;101112.34;2116968;84;29828;-60
2021/05/30 12:29:31;;;;;;;4.90;3.10;;;;;;;20.14;45.41;101109.17;2117701;84;31416;-59
2021/05/30 12:32:33;;;;;;;4.83;2.70;;;;;;;20.27;45.41;101100.91;2117748;83;33050;-59
2021/05/30 12:35:48;;;;;;;2.90;2.65;;;;;;;20.33;45.13;101101.80;2117675;83;30586;-60
2021/05/30 12:39:07;;;;;;;5.15;2.87;;;;;;;20.32;44.82;101104.14;2117752;84;27615;-59
2021/05/30 12:42:15;;;;;;;3.50;2.62;;;;;;;20.24;44.46;101101.64;2116497;82;27832;-60
2021/05/30 12:45:17;;;;;;;3.05;2.75;;;;;;;20.13;44.73;101103.36;2093137;84;31004;-60
2021/05/30 12:48:19;;;;;;;3.20;2.85;;;;;;;20.02;43.67;101097.89;2093321;84;34321;-58
2021/05/30 12:51:26;;;;;;;3.20;2.90;;;;;;;19.84;44.32;101104.19;2093874;84;30465;-59
2021/05/30 12:54:28;;;;;;;4.12;3.08;;;;;;;19.71;44.53;101098.34;2093936;84;27726;-59
2021/05/30 12:57:47;;;;;;;3.58;2.72;;;;;;;19.69;44.75;101103.02;2093758;85;28665;-60
2021/05/30 13:00:49;;;;;;;4.33;2.50;;;;;;;19.69;44.50;101108.45;2093798;84;31685;-59
2021/05/30 13:03:54;;;;;;;3.22;2.92;;;;;;;19.67;44.36;101105.48;2095207;84;33478;-60
2021/05/30 13:06:59;;;;;;;4.62;2.83;;;;;;;19.60;44.29;101102.37;2117553;83;29422;-59
2021/05/30 13:10:09;;;;;;;2.80;2.52;;;;;;;19.55;44.39;101099.12;2117359;84;27577;-60
2021/05/30 13:13:31;;;;;;;3.00;2.67;;;;;;;19.48;44.27;101102.78;2117651;83;29753;-59
2021/05/30 13:16:33;;;;;;;5.22;2.77;;;;;;;19.45;44.49;101097.58;2082361;85;31411;-59
2021/05/30 13:19:37;;;;;;;3.45;3.10;;;;;;;19.45;44.55;101086.70;2081640;85;33590;-59
2021/05/30 13:23:07;;;;;;;6.05;3.33;;;;;;;19.45;44.22;101088.06;2082341;85;29471;-58
2021/05/30 13:26:12;;;;;;;4.72;2.70;;;;;;;19.42;44.29;101089.64;2093241;84;27658;-59
2021/05/30 13:29:22;;;;;;;4.00;2.70;;;;;;;19.31;44.43;101087.72;2117957;84;28956;-59
2021/05/30 13:32:24;;;;;;;6.15;3.27;;;;;;;19.21;44.79;101083.96;2116554;83;30994;-59
2021/05/30 13:35:26;;;;;;;3.05;2.75;;;;;;;19.05;44.58;101090.52;2117744;83;33747;-58
2021/05/30 13:38:29;;;;;;;4.28;2.80;;;;;;;18.85;44.64;101089.23;2117828;83;30106;-58
2021/05/30 13:41:31;;;;;;;3.22;2.92;;;;;;;18.65;44.69;101081.13;2117820;84;27644;-58
2021/05/30 13:44:33;;;;;;;2.85;2.47;;;;;;;18.51;44.92;101080.28;2117458;83;29788;-59
2021/05/30 13:47:35;;;;;;;3.35;2.90;;;;;;;18.47;44.98;101079.25;2117245;83;32045;-59
2021/05/30 13:50:43;;;;;;;2.85;2.60;;;;;;;18.44;44.72;101070.85;2112286;83;34100;-59
2021/05/30 13:53:47;;;;;;;2.22;2.02;;;;;;;18.53;45.04;101070.69;2110679;84;29385;-58
2021/05/30 13:56:49;;;;;;;2.37;1.90;;;;;;;18.75;45.17;101065.95;2112860;84;27940;-59
2021/05/30 13:59:51;;;;;;;2.83;2.47;;;;;;;18.99;45.02;101067.87;2110446;84;29764;-59
2021/05/30 14:02:53;;;;;;;1.95;1.82;;;;;;;19.16;44.54;101065.77;2112372;84;31386;-59
2021/05/30 14:05:55;;;;;;;2.02;1.87;;;;;;;19.32;44.80;101055.50;2110343;84;34100;-59
2021/05/30 14:09:00;;;;;;;3.17;2.87;;;;;;;19.47;44.36;101052.13;2112531;84;29872;-59
2021/05/30 14:12:02;;;;;;;4.30;2.50;;;;;;;19.54;44.04;101050.66;2107437;84;27738;-59
2021/05/30 14:15:07;;;;;;;3.98;2.20;;;;;;;19.51;43.95;101050.92;2107060;84;29233;-59